Aviation Digital Data Service (ADDS)

Output produced by METARs form (0131 UTC 23 November 2017)
found at http://www.aviationweather.gov/adds/metars/
 
UGKO 230100Z 10007KT 9999 SCT023 OVC040 03/02 Q1013 R25/29//55 NOSIG
TAF UGKO 222300Z 2300/2324 VRB02KT 9999 -RA SCT023 OVC040 TX07/2308Z TN03/2303Z 
     TEMPO 2308/2316 3000 SHRA BKN015CB
       
UGSB 230100Z 13017G27KT 9999 FEW023CB BKN090 05/02 Q1013 R13/////// NOSIG
TAF UGSB 222300Z 2300/2324 13013KT 9999 SCT025 BKN070 TX07/2311Z TN04/2300Z 
     BECMG 2301/2303 21012KT -SHRA SCT020CB BKN030 
     TEMPO 2302/2312 24025G35KT 3000 TSRA SCT009 OVC015CB 
     TEMPO 2312/2316 24015G25KT 3500 TSRA SCT010 BKN018CB 
     TEMPO 2316/2324 13012KT 4500 SHRA SCT012 BKN020CB
       
UGTB 230100Z 31014KT CAVOK 03/M03 Q1013 R31L/CLRD70 NOSIG
TAF UGTB 222300Z 2300/2324 31015KT CAVOK TX09/2311Z TN01/2322Z 
     TEMPO 2313/2321 31025KT BKN050